createdAt,value
2018-02-19T00:00:34.347Z,-0.31
2018-02-19T00:01:34.293Z,-0.36
2018-02-19T00:02:34.257Z,-0.32
2018-02-19T00:03:34.221Z,-0.38
2018-02-19T00:04:34.166Z,-0.34
2018-02-19T00:05:34.153Z,-0.26
2018-02-19T00:06:34.095Z,-0.26
2018-02-19T00:07:34.043Z,-0.26
2018-02-19T00:08:34.017Z,-0.32
2018-02-19T00:09:33.972Z,-0.35
2018-02-19T00:10:33.919Z,-0.38
2018-02-19T00:11:33.900Z,-0.35
2018-02-19T00:12:33.832Z,-0.44
2018-02-19T00:13:33.792Z,-0.36
2018-02-19T00:14:33.789Z,-0.35
2018-02-19T00:15:33.705Z,-0.43
2018-02-19T00:16:33.662Z,-0.43
2018-02-19T00:17:33.631Z,-0.50
2018-02-19T00:18:33.578Z,-0.54
2018-02-19T00:19:33.539Z,-0.53
2018-02-19T00:20:33.529Z,-0.49
2018-02-19T00:21:33.449Z,-0.41
2018-02-19T00:22:33.448Z,-0.39
2018-02-19T00:23:33.368Z,-0.41
2018-02-19T00:24:33.325Z,-0.49
2018-02-19T00:25:33.281Z,-0.41
2018-02-19T00:26:33.242Z,-0.49
2018-02-19T00:27:33.198Z,-0.46
2018-02-19T00:28:33.170Z,-0.53
2018-02-19T00:29:33.111Z,-0.49
2018-02-19T00:30:33.073Z,-0.54
2018-02-19T00:31:33.041Z,-0.56
2018-02-19T00:32:32.985Z,-0.52
2018-02-19T00:33:32.953Z,-0.52
2018-02-19T00:34:32.909Z,-0.52
2018-02-19T00:35:32.858Z,-0.50
2018-02-19T00:36:32.825Z,-0.61
2018-02-19T00:37:32.777Z,-0.56
2018-02-19T00:38:32.739Z,-0.49
2018-02-19T00:39:32.694Z,-0.47
2018-02-19T00:40:32.684Z,-0.57
2018-02-19T00:41:32.607Z,-0.53
2018-02-19T00:42:32.578Z,-0.56
2018-02-19T00:43:32.535Z,-0.65
2018-02-19T00:44:32.482Z,-0.64
2018-02-19T00:45:32.438Z,-0.64
2018-02-19T00:46:32.407Z,-0.62
2018-02-19T00:47:32.357Z,-0.67
2018-02-19T00:48:32.309Z,-0.64
2018-02-19T00:49:32.270Z,-0.67
2018-02-19T00:50:32.236Z,-0.65
2018-02-19T00:51:32.183Z,-0.70
2018-02-19T00:52:32.159Z,-0.57
2018-02-19T00:53:32.104Z,-0.72
2018-02-19T00:54:32.056Z,-0.71
2018-02-19T00:55:32.017Z,-0.74
2018-02-19T00:56:31.979Z,-0.70
2018-02-19T00:57:31.932Z,-0.75
2018-02-19T00:58:31.887Z,-0.72
2018-02-19T00:59:31.888Z,-0.74
2018-02-19T01:00:31.828Z,-0.78
2018-02-19T01:01:31.764Z,-0.78
2018-02-19T01:02:31.720Z,-0.83
2018-02-19T01:03:31.675Z,-0.75
2018-02-19T01:04:31.676Z,-0.78
2018-02-19T01:05:31.591Z,-0.77
2018-02-19T01:06:31.550Z,-0.75
2018-02-19T01:07:31.508Z,-0.74
2018-02-19T01:08:31.464Z,-0.77
2018-02-19T01:09:31.436Z,-0.74
2018-02-19T01:10:31.381Z,-0.72
2018-02-19T01:11:31.342Z,-0.80
2018-02-19T01:12:31.294Z,-0.85
2018-02-19T01:13:31.265Z,-0.77
2018-02-19T01:14:31.212Z,-0.77
2018-02-19T01:15:31.170Z,-0.89
2018-02-19T01:16:31.125Z,-0.75
2018-02-19T01:17:31.081Z,-0.80
2018-02-19T01:18:31.047Z,-0.85
2018-02-19T01:19:31.008Z,-0.77
2018-02-19T01:20:30.956Z,-0.75
2018-02-19T01:21:30.924Z,-0.77
2018-02-19T01:22:30.882Z,-0.74
2018-02-19T01:23:30.831Z,-0.72
2018-02-19T01:24:30.789Z,-0.72
2018-02-19T01:25:30.745Z,-0.78
2018-02-19T01:26:30.703Z,-0.75
2018-02-19T01:27:30.663Z,-0.77
2018-02-19T01:28:30.626Z,-0.77
2018-02-19T01:29:30.573Z,-0.75
2018-02-19T01:30:30.534Z,-0.82
2018-02-19T01:31:30.532Z,-0.72
2018-02-19T01:32:30.447Z,-0.82
2018-02-19T01:33:30.418Z,-0.70
2018-02-19T01:34:30.386Z,-0.86
2018-02-19T01:35:30.325Z,-0.72
2018-02-19T01:36:30.304Z,-0.82
2018-02-19T01:37:30.239Z,-0.78
2018-02-19T01:38:30.201Z,-0.80
2018-02-19T01:39:30.155Z,-0.82
2018-02-19T01:40:30.115Z,-0.83
2018-02-19T01:41:30.065Z,-0.82
2018-02-19T01:42:30.026Z,-0.80
2018-02-19T01:43:29.994Z,-0.77
2018-02-19T01:44:29.937Z,-0.78
2018-02-19T01:45:29.895Z,-0.78
2018-02-19T01:46:29.859Z,-0.82
2018-02-19T01:47:29.811Z,-0.77
2018-02-19T01:48:29.777Z,-0.74
2018-02-19T01:49:29.732Z,-0.78
2018-02-19T01:50:29.692Z,-0.80
2018-02-19T01:51:29.643Z,-0.82
2018-02-19T01:52:29.600Z,-0.80
2018-02-19T01:53:29.560Z,-0.93
2018-02-19T01:54:29.515Z,-0.83
2018-02-19T01:55:29.485Z,-0.86
2018-02-19T01:56:29.719Z,-0.93
2018-02-19T01:57:29.387Z,-0.78
2018-02-19T01:58:29.347Z,-0.83
2018-02-19T01:59:29.301Z,-0.86
2018-02-19T02:00:29.259Z,-0.86
2018-02-19T02:01:29.223Z,-0.86
2018-02-19T02:02:29.180Z,-0.86
2018-02-19T02:03:29.133Z,-0.83
2018-02-19T02:04:29.133Z,-0.78
2018-02-19T02:05:29.046Z,-0.75
2018-02-19T02:06:29.016Z,-0.75
2018-02-19T02:07:28.971Z,-0.72
2018-02-19T02:08:28.919Z,-0.74
2018-02-19T02:09:28.877Z,-0.72
2018-02-19T02:10:28.850Z,-0.77
2018-02-19T02:11:28.791Z,-0.85
2018-02-19T02:12:28.749Z,-0.72
2018-02-19T02:13:28.717Z,-0.77
2018-02-19T02:14:28.670Z,-0.78
2018-02-19T02:15:28.630Z,-0.85
2018-02-19T02:16:28.580Z,-0.78
2018-02-19T02:17:28.542Z,-0.82
2018-02-19T02:18:28.500Z,-0.85
2018-02-19T02:19:28.455Z,-0.80
2018-02-19T02:20:28.410Z,-0.75
2018-02-19T02:21:28.384Z,-0.77
2018-02-19T02:22:28.360Z,-0.80
2018-02-19T02:23:28.282Z,-0.80
2018-02-19T02:24:28.242Z,-0.71
2018-02-19T02:25:28.199Z,-0.71
2018-02-19T02:26:28.164Z,-0.74
2018-02-19T02:27:28.150Z,-0.72
2018-02-19T02:28:28.846Z,-0.71
2018-02-19T02:29:28.028Z,-0.71
2018-02-19T02:30:27.988Z,-0.74
2018-02-19T02:31:27.945Z,-0.74
2018-02-19T02:32:27.903Z,-0.67
2018-02-19T02:33:27.867Z,-0.72
2018-02-19T02:34:27.818Z,-0.77
2018-02-19T02:35:27.774Z,-0.70
2018-02-19T02:36:27.729Z,-0.75
2018-02-19T02:37:27.729Z,-0.77
2018-02-19T02:38:27.650Z,-0.82
2018-02-19T02:39:27.608Z,-0.83
2018-02-19T02:40:27.560Z,-0.90
2018-02-19T02:41:27.519Z,-0.96
2018-02-19T02:42:27.478Z,-0.97
2018-02-19T02:43:27.438Z,-0.90
2018-02-19T02:44:27.477Z,-0.89
2018-02-19T02:45:27.350Z,-0.96
2018-02-19T02:46:27.306Z,-0.91
2018-02-19T02:47:27.263Z,-0.86
2018-02-19T02:48:27.233Z,-0.93
2018-02-19T02:49:27.184Z,-0.89
2018-02-19T02:50:27.136Z,-0.82
2018-02-19T02:51:27.099Z,-0.86
2018-02-19T02:52:27.057Z,-0.89
2018-02-19T02:53:27.010Z,-0.86
2018-02-19T02:54:26.972Z,-0.80
2018-02-19T02:55:26.926Z,-0.90
2018-02-19T02:56:26.901Z,-0.86
2018-02-19T02:57:26.839Z,-0.86
2018-02-19T02:58:26.831Z,-0.86
2018-02-19T02:59:26.759Z,-0.93
2018-02-19T03:00:26.713Z,-0.89
2018-02-19T03:01:26.698Z,-0.83
2018-02-19T03:02:26.659Z,-0.90
2018-02-19T03:03:26.585Z,-0.82
2018-02-19T03:04:26.546Z,-0.90
2018-02-19T03:05:26.502Z,-0.86
2018-02-19T03:06:26.461Z,-0.77
2018-02-19T03:07:26.417Z,-0.74
2018-02-19T03:08:26.391Z,-0.71
2018-02-19T03:09:26.339Z,-0.71
2018-02-19T03:10:26.293Z,-0.68
2018-02-19T03:11:26.244Z,-0.68
2018-02-19T03:12:26.206Z,-0.68
2018-02-19T03:13:26.160Z,-0.67
2018-02-19T03:14:26.122Z,-0.62
2018-02-19T03:15:26.077Z,-0.67
2018-02-19T03:16:26.042Z,-0.61
2018-02-19T03:17:25.992Z,-0.70
2018-02-19T03:18:25.950Z,-0.54
2018-02-19T03:19:25.906Z,-0.70
2018-02-19T03:20:25.865Z,-0.52
2018-02-19T03:21:25.831Z,-0.59
2018-02-19T03:22:25.789Z,-0.56
2018-02-19T03:23:25.736Z,-0.53
2018-02-19T03:24:25.702Z,-0.50
2018-02-19T03:25:25.651Z,-0.39
2018-02-19T03:26:25.612Z,-0.46
2018-02-19T03:27:25.568Z,-0.35
2018-02-19T03:28:25.531Z,-0.35
2018-02-19T03:29:25.486Z,-0.47
2018-02-19T03:30:25.464Z,-0.31
2018-02-19T03:31:25.399Z,-0.43
2018-02-19T03:32:25.355Z,-0.31
2018-02-19T03:33:25.318Z,-0.28
2018-02-19T03:34:25.281Z,-0.36
2018-02-19T03:35:25.236Z,-0.34
2018-02-19T03:36:25.186Z,-0.20
2018-02-19T03:37:25.159Z,-0.21
2018-02-19T03:38:25.104Z,-0.28
2018-02-19T03:39:25.063Z,-0.32
2018-02-19T03:40:25.016Z,-0.29
2018-02-19T03:41:24.979Z,-0.25
2018-02-19T03:42:24.944Z,-0.21
2018-02-19T03:43:24.899Z,-0.23
2018-02-19T03:44:24.850Z,-0.20
2018-02-19T03:45:24.814Z,-0.21
2018-02-19T03:46:24.768Z,-0.23
2018-02-19T03:47:24.724Z,-0.23
2018-02-19T03:48:24.680Z,-0.14
2018-02-19T03:49:24.637Z,-0.13
2018-02-19T03:50:24.594Z,-0.13
2018-02-19T03:51:24.554Z,-0.13
2018-02-19T03:52:24.511Z,-0.17
2018-02-19T03:53:24.479Z,-0.07
2018-02-19T03:54:24.428Z,-0.15
2018-02-19T03:55:24.388Z,-0.11
2018-02-19T03:56:24.346Z,-0.13
2018-02-19T03:57:24.305Z,-0.07
2018-02-19T03:58:24.267Z,-0.15
2018-02-19T03:59:24.219Z,-0.13
2018-02-19T04:00:24.180Z,-0.10
2018-02-19T04:01:24.140Z,-0.07
2018-02-19T04:02:24.090Z,-0.03
2018-02-19T04:03:24.053Z,0.01
2018-02-19T04:04:24.003Z,-0.02
2018-02-19T04:05:23.962Z,0.01
2018-02-19T04:06:23.930Z,0.04
2018-02-19T04:07:23.882Z,0.00
2018-02-19T04:08:23.907Z,0.04
2018-02-19T04:09:23.814Z,-0.02
2018-02-19T04:10:23.802Z,-0.08
2018-02-19T04:11:23.709Z,-0.08
2018-02-19T04:12:23.683Z,-0.02
2018-02-19T04:13:23.640Z,-0.07
2018-02-19T04:14:23.584Z,-0.08
2018-02-19T04:15:23.552Z,-0.08
2018-02-19T04:16:23.499Z,0.04
2018-02-19T04:17:23.460Z,-0.02
2018-02-19T04:18:23.419Z,0.01
2018-02-19T04:19:23.394Z,0.03
2018-02-19T04:20:23.332Z,-0.02
2018-02-19T04:21:23.289Z,-0.08
2018-02-19T04:22:23.245Z,-0.06
2018-02-19T04:23:23.208Z,0.00
2018-02-19T04:24:23.169Z,-0.07
2018-02-19T04:25:23.129Z,-0.11
2018-02-19T04:26:23.087Z,-0.11
2018-02-19T04:27:23.044Z,-0.02
2018-02-19T04:28:22.998Z,-0.08
2018-02-19T04:29:22.951Z,-0.02
2018-02-19T04:30:22.920Z,-0.02
2018-02-19T04:31:22.875Z,-0.06
2018-02-19T04:32:22.844Z,0.00
2018-02-19T04:33:22.783Z,-0.03
2018-02-19T04:34:22.748Z,-0.10
2018-02-19T04:35:22.700Z,-0.06
2018-02-19T04:36:22.677Z,-0.03
2018-02-19T04:37:22.620Z,-0.07
2018-02-19T04:38:22.574Z,-0.07
2018-02-19T04:39:22.531Z,-0.06
2018-02-19T04:40:22.493Z,0.01
2018-02-19T04:41:22.445Z,-0.06
2018-02-19T04:42:22.416Z,-0.02
2018-02-19T04:43:22.362Z,-0.03
2018-02-19T04:44:22.331Z,-0.14
2018-02-19T04:45:23.161Z,-0.07
2018-02-19T04:46:22.242Z,-0.03
2018-02-19T04:47:22.194Z,-0.03
2018-02-19T04:48:22.194Z,0.00
2018-02-19T04:49:22.114Z,0.01
2018-02-19T04:50:22.089Z,-0.03
2018-02-19T04:51:22.029Z,-0.08
2018-02-19T04:52:21.981Z,-0.15
2018-02-19T04:53:21.952Z,-0.06
2018-02-19T04:54:21.902Z,-0.11
2018-02-19T04:55:21.861Z,-0.07
2018-02-19T04:56:21.815Z,-0.10
2018-02-19T04:57:21.811Z,-0.14
2018-02-19T04:58:21.763Z,-0.10
2018-02-19T04:59:21.695Z,-0.15
2018-02-19T05:00:21.680Z,-0.10
2018-02-19T05:01:21.608Z,-0.08
2018-02-19T05:02:21.612Z,-0.07
2018-02-19T05:03:21.521Z,-0.13
2018-02-19T05:04:21.478Z,-0.03
2018-02-19T05:05:21.434Z,-0.10
2018-02-19T05:06:21.397Z,-0.15
2018-02-19T05:07:21.352Z,-0.14
2018-02-19T05:08:21.311Z,-0.13
2018-02-19T05:09:21.266Z,-0.11
2018-02-19T05:10:21.227Z,-0.10
2018-02-19T05:11:21.195Z,-0.07
2018-02-19T05:12:21.177Z,-0.15
2018-02-19T05:13:21.121Z,-0.13
2018-02-19T05:14:21.060Z,-0.11
2018-02-19T05:15:21.022Z,-0.13
2018-02-19T05:16:21.018Z,-0.14
2018-02-19T05:17:20.936Z,-0.10
2018-02-19T05:18:20.902Z,-0.11
2018-02-19T05:19:20.844Z,-0.11
2018-02-19T05:20:20.802Z,-0.11
2018-02-19T05:21:20.761Z,-0.15
2018-02-19T05:22:20.720Z,-0.15
2018-02-19T05:23:20.690Z,-0.10
2018-02-19T05:24:22.393Z,-0.07
2018-02-19T05:25:20.618Z,0.00
2018-02-19T05:26:20.551Z,-0.07
2018-02-19T05:27:20.506Z,-0.07
2018-02-19T05:28:20.464Z,-0.13
2018-02-19T05:29:20.441Z,-0.06
2018-02-19T05:30:20.393Z,-0.03
2018-02-19T05:31:20.381Z,0.03
2018-02-19T05:32:20.296Z,-0.07
2018-02-19T05:33:20.255Z,0.04
2018-02-19T05:34:20.234Z,-0.02
2018-02-19T05:35:20.178Z,0.03
2018-02-19T05:36:20.127Z,0.03
2018-02-19T05:37:20.090Z,-0.02
2018-02-19T05:38:20.077Z,0.00
2018-02-19T05:39:20.001Z,0.03
2018-02-19T05:40:19.957Z,0.04
2018-02-19T05:41:19.941Z,0.08
2018-02-19T05:42:19.885Z,0.01
2018-02-19T05:43:19.850Z,0.03
2018-02-19T05:44:19.793Z,0.03
2018-02-19T05:45:19.750Z,0.04
2018-02-19T05:46:19.709Z,0.00
2018-02-19T05:47:19.667Z,0.04
2018-02-19T05:48:19.630Z,0.10
2018-02-19T05:49:19.581Z,0.00
2018-02-19T05:50:19.564Z,0.01
2018-02-19T05:51:19.502Z,0.10
2018-02-19T05:52:19.461Z,0.04
2018-02-19T05:53:19.416Z,0.03
2018-02-19T05:54:19.394Z,0.07
2018-02-19T05:55:19.330Z,0.03
2018-02-19T05:56:19.302Z,0.01
2018-02-19T05:57:19.265Z,0.08
2018-02-19T05:58:19.207Z,0.03
2018-02-19T05:59:19.186Z,0.00
2018-02-19T06:00:19.124Z,0.04
2018-02-19T06:01:19.075Z,0.07
2018-02-19T06:02:19.036Z,0.03
2018-02-19T06:03:18.990Z,0.04
2018-02-19T06:04:18.949Z,0.00
2018-02-19T06:05:18.909Z,0.01
2018-02-19T06:06:18.865Z,0.03
2018-02-19T06:07:18.822Z,0.05
2018-02-19T06:08:18.783Z,0.03
2018-02-19T06:09:18.738Z,0.07
2018-02-19T06:10:18.720Z,0.07
2018-02-19T06:11:18.654Z,0.00
2018-02-19T06:12:18.611Z,0.01
2018-02-19T06:13:18.572Z,0.00
2018-02-19T06:14:18.532Z,0.00
2018-02-19T06:15:18.485Z,-0.03
2018-02-19T06:16:18.441Z,0.00
2018-02-19T06:17:18.401Z,0.03
2018-02-19T06:18:18.360Z,-0.03
2018-02-19T06:19:18.319Z,-0.03
2018-02-19T06:20:18.276Z,0.03
2018-02-19T06:21:18.233Z,-0.02
2018-02-19T06:22:18.218Z,0.00
2018-02-19T06:23:18.812Z,0.00
2018-02-19T06:24:18.106Z,0.00
2018-02-19T06:25:18.065Z,-0.07
2018-02-19T06:26:18.024Z,0.01
2018-02-19T06:27:17.985Z,0.03
2018-02-19T06:28:17.937Z,0.05
2018-02-19T06:29:17.898Z,0.04
2018-02-19T06:30:17.852Z,0.08
2018-02-19T06:31:17.815Z,0.01
2018-02-19T06:32:17.770Z,0.05
2018-02-19T06:33:17.738Z,0.04
2018-02-19T06:34:17.689Z,0.04
2018-02-19T06:35:17.643Z,0.08
2018-02-19T06:36:17.601Z,-0.02
2018-02-19T06:37:17.563Z,0.00
2018-02-19T06:38:17.516Z,0.05
2018-02-19T06:39:17.474Z,0.00
2018-02-19T06:40:17.432Z,0.07
2018-02-19T06:41:17.389Z,0.03
2018-02-19T06:42:17.359Z,0.07
2018-02-19T06:43:17.307Z,-0.03
2018-02-19T06:44:17.262Z,0.00
2018-02-19T06:45:17.243Z,0.05
2018-02-19T06:46:17.180Z,0.00
2018-02-19T06:47:17.141Z,0.05
2018-02-19T06:48:17.094Z,0.00
2018-02-19T06:49:17.099Z,0.04
2018-02-19T06:50:17.012Z,0.10
2018-02-19T06:51:16.970Z,0.00
2018-02-19T06:52:16.935Z,0.07
2018-02-19T06:53:16.887Z,0.04
2018-02-19T06:54:16.844Z,0.10
2018-02-19T06:55:16.801Z,0.07
2018-02-19T06:56:16.758Z,0.08
2018-02-19T06:57:16.722Z,0.11
2018-02-19T06:58:16.706Z,0.18
2018-02-19T06:59:16.634Z,0.08
2018-02-19T07:00:16.592Z,0.10
2018-02-19T07:01:16.548Z,0.10
2018-02-19T07:02:16.509Z,0.16
2018-02-19T07:03:16.467Z,0.18
2018-02-19T07:04:16.421Z,0.10
2018-02-19T07:05:16.389Z,0.23
2018-02-19T07:06:16.338Z,0.21
2018-02-19T07:07:16.300Z,0.21
2018-02-19T07:08:16.254Z,0.23
2018-02-19T07:09:16.220Z,0.28
2018-02-19T07:10:16.172Z,0.16
2018-02-19T07:11:16.130Z,0.18
2018-02-19T07:12:16.085Z,0.32
2018-02-19T07:13:16.046Z,0.19
2018-02-19T07:14:16.003Z,0.22
2018-02-19T07:15:15.963Z,0.31
2018-02-19T07:16:15.920Z,0.34
2018-02-19T07:17:15.885Z,0.31
2018-02-19T07:18:15.835Z,0.32
2018-02-19T07:19:15.798Z,0.29
2018-02-19T07:20:15.755Z,0.31
2018-02-19T07:21:15.710Z,0.36
2018-02-19T07:22:15.671Z,0.32
2018-02-19T07:23:15.637Z,0.32
2018-02-19T07:24:15.588Z,0.29
2018-02-19T07:25:15.542Z,0.32
2018-02-19T07:26:15.503Z,0.36
2018-02-19T07:27:15.465Z,0.34
2018-02-19T07:28:15.420Z,0.39
2018-02-19T07:29:15.373Z,0.44
2018-02-19T07:30:15.334Z,0.39
2018-02-19T07:31:15.293Z,0.40
2018-02-19T07:32:15.249Z,0.40
2018-02-19T07:33:15.211Z,0.41
2018-02-19T07:34:15.166Z,0.46
2018-02-19T07:35:15.266Z,0.50
2018-02-19T07:36:15.086Z,0.46
2018-02-19T07:37:15.047Z,0.47
2018-02-19T07:38:15.002Z,0.49
2018-02-19T07:39:14.958Z,0.49
2018-02-19T07:40:14.916Z,0.52
2018-02-19T07:41:14.876Z,0.47
2018-02-19T07:42:14.833Z,0.56
2018-02-19T07:43:14.792Z,0.60
2018-02-19T07:44:14.810Z,0.60
2018-02-19T07:45:14.710Z,0.62
2018-02-19T07:46:14.668Z,0.65
2018-02-19T07:47:14.626Z,0.60
2018-02-19T07:48:14.588Z,0.63
2018-02-19T07:49:14.543Z,0.58
2018-02-19T07:50:14.539Z,0.65
2018-02-19T07:51:14.458Z,0.63
2018-02-19T07:52:14.424Z,0.66
2018-02-19T07:53:14.374Z,0.60
2018-02-19T07:54:14.347Z,0.65
2018-02-19T07:55:14.293Z,0.65
2018-02-19T07:56:14.279Z,0.63
2018-02-19T07:57:14.212Z,0.70
2018-02-19T07:58:14.168Z,0.63
2018-02-19T07:59:14.129Z,0.78
2018-02-19T08:00:14.085Z,0.70
2018-02-19T08:01:14.048Z,0.81
2018-02-19T08:02:14.006Z,0.83
2018-02-19T08:03:13.963Z,0.81
2018-02-19T08:04:13.921Z,0.92
2018-02-19T08:05:13.881Z,0.91
2018-02-19T08:06:13.835Z,0.91
2018-02-19T08:07:13.838Z,1.01
2018-02-19T08:08:13.753Z,0.98
2018-02-19T08:09:13.716Z,0.91
2018-02-19T08:10:13.673Z,0.95
2018-02-19T08:11:13.639Z,0.94
2018-02-19T08:12:13.587Z,0.99
2018-02-19T08:13:13.546Z,1.05
2018-02-19T08:14:13.505Z,1.05
2018-02-19T08:15:13.468Z,1.06
2018-02-19T08:16:13.429Z,1.01
2018-02-19T08:17:13.384Z,1.05
2018-02-19T08:18:13.347Z,1.12
2018-02-19T08:19:13.302Z,0.98
2018-02-19T08:20:13.258Z,1.19
2018-02-19T08:21:13.217Z,1.17
2018-02-19T08:22:13.176Z,1.17
2018-02-19T08:23:13.135Z,1.23
2018-02-19T08:24:13.100Z,1.26
2018-02-19T08:25:13.056Z,1.32
2018-02-19T08:26:13.016Z,1.31
2018-02-19T08:27:12.972Z,1.38
2018-02-19T08:28:12.929Z,1.37
2018-02-19T08:29:12.888Z,1.37
2018-02-19T08:30:12.856Z,1.52
2018-02-19T08:31:12.807Z,1.58
2018-02-19T08:32:12.767Z,1.63
2018-02-19T08:33:12.726Z,1.70
2018-02-19T08:34:12.688Z,1.66
2018-02-19T08:35:12.645Z,1.76
2018-02-19T08:36:12.605Z,1.89
2018-02-19T08:37:12.568Z,1.91
2018-02-19T08:38:12.523Z,1.71
2018-02-19T08:39:12.521Z,1.77
2018-02-19T08:40:12.448Z,1.78
2018-02-19T08:41:12.404Z,1.81
2018-02-19T08:42:12.363Z,1.84
2018-02-19T08:43:12.326Z,1.81
2018-02-19T08:44:12.288Z,1.85
2018-02-19T08:45:12.253Z,1.95
2018-02-19T08:46:12.204Z,1.95
2018-02-19T08:47:12.165Z,2.00
2018-02-19T08:48:12.121Z,1.94
2018-02-19T08:49:12.082Z,1.94
2018-02-19T08:50:12.050Z,2.07
2018-02-19T08:51:12.004Z,1.97
2018-02-19T08:52:11.962Z,1.88
2018-02-19T08:53:11.954Z,1.99
2018-02-19T08:54:11.883Z,1.95
2018-02-19T08:55:11.846Z,2.02
2018-02-19T08:56:11.822Z,2.10
2018-02-19T08:57:11.764Z,2.06
2018-02-19T08:58:11.724Z,2.20
2018-02-19T08:59:11.685Z,2.28
2018-02-19T09:00:11.646Z,2.26
2018-02-19T09:01:11.603Z,2.36
2018-02-19T09:02:11.566Z,2.28
2018-02-19T09:03:11.527Z,2.33
2018-02-19T09:04:11.484Z,2.31
2018-02-19T09:05:11.445Z,2.25
2018-02-19T09:06:11.405Z,2.42
2018-02-19T09:07:11.379Z,2.38
2018-02-19T09:08:11.327Z,2.35
2018-02-19T09:09:11.290Z,2.36
2018-02-19T09:10:11.245Z,2.38
2018-02-19T09:11:11.208Z,2.36
2018-02-19T09:12:11.167Z,2.46
2018-02-19T09:13:11.131Z,2.42
2018-02-19T09:14:11.088Z,2.43
2018-02-19T09:15:11.061Z,2.44
2018-02-19T09:16:11.009Z,2.44
2018-02-19T09:17:10.969Z,2.44
2018-02-19T09:18:10.933Z,2.57
2018-02-19T09:19:10.893Z,2.56
2018-02-19T09:20:10.857Z,2.49
2018-02-19T09:21:10.812Z,2.61
2018-02-19T09:22:10.778Z,2.61
2018-02-19T09:23:10.731Z,2.56
2018-02-19T09:24:10.690Z,2.54
2018-02-19T09:25:10.651Z,2.61
2018-02-19T09:26:10.615Z,2.61
2018-02-19T09:27:10.574Z,2.61
2018-02-19T09:28:10.533Z,2.72
2018-02-19T09:29:10.492Z,2.71
2018-02-19T09:30:10.455Z,2.68
2018-02-19T09:31:10.416Z,2.79
2018-02-19T09:32:10.378Z,2.79
2018-02-19T09:33:10.341Z,2.82
2018-02-19T09:34:10.296Z,2.79
2018-02-19T09:35:10.256Z,2.85
2018-02-19T09:36:10.256Z,2.74
2018-02-19T09:37:10.175Z,2.79
2018-02-19T09:38:10.140Z,2.77
2018-02-19T09:39:10.112Z,2.90
2018-02-19T09:40:10.056Z,2.86
2018-02-19T09:41:10.015Z,2.95
2018-02-19T09:42:09.985Z,2.90
2018-02-19T09:43:09.938Z,2.95
2018-02-19T09:44:09.898Z,2.98
2018-02-19T09:45:09.861Z,3.01
2018-02-19T09:46:09.819Z,3.07
2018-02-19T09:47:09.789Z,3.03
2018-02-19T09:48:09.742Z,3.11
2018-02-19T09:49:09.703Z,3.03
2018-02-19T09:50:09.660Z,2.86
2018-02-19T09:51:09.623Z,2.79
2018-02-19T09:52:09.580Z,2.80
2018-02-19T09:53:09.541Z,2.82
2018-02-19T09:54:09.500Z,2.86
2018-02-19T09:55:09.461Z,2.86
2018-02-19T09:56:09.423Z,2.80
2018-02-19T09:57:09.383Z,2.87
2018-02-19T09:58:09.343Z,2.86
2018-02-19T09:59:09.307Z,2.85
2018-02-19T10:00:09.273Z,2.85
2018-02-19T10:01:09.225Z,2.77
2018-02-19T10:02:09.184Z,2.90
2018-02-19T10:03:09.146Z,2.97
2018-02-19T10:04:09.104Z,3.00
2018-02-19T10:05:09.064Z,3.00
2018-02-19T10:06:09.023Z,2.93
2018-02-19T10:07:08.984Z,2.97
2018-02-19T10:08:08.944Z,2.98
2018-02-19T10:09:08.906Z,3.01
2018-02-19T10:10:08.868Z,3.07
2018-02-19T10:11:08.828Z,3.10
2018-02-19T10:12:08.842Z,3.08
2018-02-19T10:13:08.746Z,3.21
2018-02-19T10:14:08.709Z,3.18
2018-02-19T10:15:08.669Z,3.32
2018-02-19T10:16:08.625Z,3.32
2018-02-19T10:17:08.586Z,3.36
2018-02-19T10:18:08.548Z,3.32
2018-02-19T10:19:08.521Z,3.51
2018-02-19T10:20:08.478Z,3.56
2018-02-19T10:21:08.435Z,3.56
2018-02-19T10:22:08.394Z,3.68
2018-02-19T10:23:08.352Z,3.70
2018-02-19T10:24:08.311Z,3.66
2018-02-19T10:25:08.271Z,3.66
2018-02-19T10:26:08.232Z,3.84
2018-02-19T10:27:08.193Z,3.83
2018-02-19T10:28:08.157Z,3.87
2018-02-19T10:29:08.113Z,3.87
2018-02-19T10:30:08.076Z,3.92
2018-02-19T10:31:08.048Z,3.98
2018-02-19T10:32:07.996Z,3.92
2018-02-19T10:33:07.956Z,3.95
2018-02-19T10:34:07.922Z,3.77
2018-02-19T10:35:07.881Z,3.98
2018-02-19T10:36:07.844Z,4.04
2018-02-19T10:37:07.803Z,3.99
2018-02-19T10:38:07.765Z,4.13
2018-02-19T10:39:07.726Z,4.24
2018-02-19T10:40:07.689Z,4.06
2018-02-19T10:41:07.650Z,4.13
2018-02-19T10:42:07.611Z,4.14
2018-02-19T10:43:07.620Z,4.16
2018-02-19T10:44:07.529Z,4.24
2018-02-19T10:45:07.490Z,4.30
2018-02-19T10:46:07.453Z,4.48
2018-02-19T10:47:07.415Z,4.56
2018-02-19T10:48:07.377Z,4.63
2018-02-19T10:49:07.341Z,4.59
2018-02-19T10:50:07.298Z,4.60
2018-02-19T10:51:07.259Z,4.68
2018-02-19T10:52:07.231Z,4.74
2018-02-19T10:53:07.188Z,4.70
2018-02-19T10:54:07.148Z,4.80
2018-02-19T10:55:07.106Z,4.84
2018-02-19T10:56:07.068Z,4.60
2018-02-19T10:57:07.031Z,4.80
2018-02-19T10:58:06.992Z,4.87
2018-02-19T10:59:06.956Z,4.87
2018-02-19T11:00:06.914Z,4.87
2018-02-19T11:01:06.881Z,4.89
2018-02-19T11:02:06.847Z,5.02
2018-02-19T11:03:06.806Z,5.02
2018-02-19T11:04:06.762Z,4.96
2018-02-19T11:05:06.729Z,5.05
2018-02-19T11:06:06.710Z,5.11
2018-02-19T11:07:06.653Z,5.17
2018-02-19T11:08:06.613Z,5.32
2018-02-19T11:09:06.578Z,5.35
2018-02-19T11:10:06.550Z,5.30
2018-02-19T11:11:06.500Z,5.44
2018-02-19T11:12:06.465Z,5.38
2018-02-19T11:13:06.425Z,5.43
2018-02-19T11:14:06.389Z,5.48
2018-02-19T11:15:06.352Z,5.46
2018-02-19T11:16:06.311Z,5.36
2018-02-19T11:17:06.275Z,5.32
2018-02-19T11:18:06.237Z,5.51
2018-02-19T11:19:06.208Z,5.43
2018-02-19T11:20:06.162Z,5.51
2018-02-19T11:21:06.126Z,5.57
2018-02-19T11:22:06.088Z,5.76
2018-02-19T11:23:06.051Z,5.71
2018-02-19T11:24:06.021Z,5.72
2018-02-19T11:25:05.978Z,5.79
2018-02-19T11:26:05.943Z,5.64
2018-02-19T11:27:05.905Z,5.54
2018-02-19T11:28:05.862Z,5.68
2018-02-19T11:29:05.840Z,5.69
2018-02-19T11:30:05.793Z,5.61
2018-02-19T11:31:05.755Z,5.59
2018-02-19T11:32:05.715Z,5.75
2018-02-19T11:33:05.680Z,5.76
2018-02-19T11:34:05.644Z,5.53
2018-02-19T11:35:05.624Z,5.53
2018-02-19T11:36:05.569Z,5.57
2018-02-19T11:37:05.530Z,5.54
2018-02-19T11:38:05.490Z,5.56
2018-02-19T11:39:05.458Z,5.50
2018-02-19T11:40:05.417Z,5.35
2018-02-19T11:41:05.387Z,5.53
2018-02-19T11:42:05.343Z,5.61
2018-02-19T11:43:05.308Z,5.62
2018-02-19T11:44:05.269Z,5.51
2018-02-19T11:45:05.234Z,5.83
2018-02-19T11:46:05.237Z,5.98
2018-02-19T11:47:05.161Z,6.09
2018-02-19T11:48:05.125Z,6.14
2018-02-19T11:49:05.083Z,6.05
2018-02-19T11:50:05.047Z,6.20
2018-02-19T11:51:05.013Z,6.08
2018-02-19T11:52:04.976Z,6.20
2018-02-19T11:53:04.944Z,6.26
2018-02-19T11:54:04.900Z,6.19
2018-02-19T11:55:04.866Z,6.09
2018-02-19T11:56:04.867Z,5.94
2018-02-19T11:57:04.791Z,5.98
2018-02-19T11:58:04.753Z,5.94
2018-02-19T11:59:04.728Z,6.01
2018-02-19T12:00:04.682Z,5.97
2018-02-19T12:01:04.699Z,6.05
2018-02-19T12:02:04.609Z,6.26
2018-02-19T12:03:04.570Z,6.45
2018-02-19T12:04:04.534Z,6.60
2018-02-19T12:05:04.507Z,6.62
2018-02-19T12:06:04.885Z,6.74
2018-02-19T12:07:04.427Z,7.05
2018-02-19T12:08:04.395Z,7.24
2018-02-19T12:09:04.369Z,7.51
2018-02-19T12:10:04.319Z,7.72
2018-02-19T12:11:04.286Z,7.97
2018-02-19T12:12:04.248Z,8.06
2018-02-19T12:13:04.213Z,8.48
2018-02-19T12:14:04.178Z,8.81
2018-02-19T12:15:04.149Z,9.25
2018-02-19T12:16:04.112Z,9.40
2018-02-19T12:17:04.076Z,9.31
2018-02-19T12:18:04.045Z,9.10
2018-02-19T12:19:04.018Z,9.06
2018-02-19T12:20:03.978Z,8.89
2018-02-19T12:21:03.949Z,8.88
2018-02-19T12:22:03.917Z,8.82
2018-02-19T12:23:03.923Z,8.76
2018-02-19T12:24:03.842Z,9.16
2018-02-19T12:25:03.809Z,9.26
2018-02-19T12:26:03.779Z,9.55
2018-02-19T12:27:03.746Z,9.69
2018-02-19T12:28:03.712Z,9.62
2018-02-19T12:29:03.688Z,9.76
2018-02-19T12:30:03.649Z,9.86
2018-02-19T12:31:03.623Z,9.98
2018-02-19T12:32:03.585Z,10.34
2018-02-19T12:33:03.550Z,9.98
2018-02-19T12:34:03.523Z,9.86
2018-02-19T12:35:03.487Z,9.58
2018-02-19T12:36:03.451Z,9.43
2018-02-19T12:37:03.422Z,9.40
2018-02-19T12:38:03.387Z,9.29
2018-02-19T12:39:03.364Z,9.47
2018-02-19T12:40:03.334Z,9.46
2018-02-19T12:41:03.292Z,9.26
2018-02-19T12:42:03.255Z,9.29
2018-02-19T12:43:03.227Z,9.18
2018-02-19T12:44:03.205Z,9.14
2018-02-19T12:45:03.159Z,9.28
2018-02-19T12:46:03.124Z,9.44
2018-02-19T12:47:03.103Z,9.58
2018-02-19T12:48:03.055Z,9.56
2018-02-19T12:49:03.026Z,9.43
2018-02-19T12:50:02.994Z,9.36
2018-02-19T12:51:02.959Z,9.36
2018-02-19T12:52:02.925Z,9.23
2018-02-19T12:53:02.892Z,9.22
2018-02-19T12:54:02.858Z,9.11
2018-02-19T12:55:02.824Z,9.21
2018-02-19T12:56:02.791Z,8.95
2018-02-19T12:57:02.757Z,9.11
2018-02-19T12:58:02.726Z,8.99
2018-02-19T12:59:02.692Z,8.88
2018-02-19T13:00:02.699Z,8.91
2018-02-19T13:01:02.670Z,8.84
2018-02-19T13:02:02.600Z,8.84
2018-02-19T13:03:02.555Z,8.89
2018-02-19T13:04:02.517Z,8.82
2018-02-19T13:05:02.489Z,8.92
2018-02-19T13:06:02.446Z,8.99
2018-02-19T13:07:02.417Z,8.92